Sandy Lake Airport
CZSJ : now visible

Airfield :











YOU CAN JOIN US ON...

 
LOGIN :

Register | Disclaimer

   EN    FR    IT 

 









Legend :    VFR   Marginal VFR   IFR   Intensive IFR   Very Intensive IFR
Visi :
Ceiling :
>= 8 km
>= 3000ft
5 to 8 km
1000 to 3000 ft
1500m to 5 km
500 to 1000 ft
800 to 1500m
200 to 500 ft
< 800m
< 200 ft
Symbols :   Thunderstorms  Fog  Heavy snow  Heavy precipitations  Wind > 20 kt






- Airport Elevation : 951 ft
- IATA code : ZSJ


CZSJ - Sandy Lake

CURRENT METAR :
  • 291330Z AUTO 00000KT 9SM OVC005 M15/M16 A3018 RMK SLP253

EXPIRED METARs :
  • 291317Z AUTO 00000KT 9SM -SN OVC003 M15/M16 A3018 RMK SLP253
  • 291311Z AUTO 00000KT 9SM OVC003 M15/M16 A3018 RMK SLP253
  • 291300Z AUTO VRB02KT 9SM -SN OVC003 M15/M16 A3019 RMK SLP254
  • 291252Z AUTO VRB02KT 9SM -SN OVC003 M15/M16 A3019 RMK SLP254
  • 291225Z AUTO 00000KT 9SM OVC003 M15/M16 A3019 RMK SLP254
  • 291212Z AUTO 14002KT 9SM -SN OVC003 M15/M16 A3019 RMK SLP254
  • 291150Z AUTO 10002KT 6SM -SN OVC003 M15/M17 A3019 RMK SLP254
  • 291132Z AUTO VRB02KT 6SM BR OVC003 M15/M16 A3019 RMK SLP255
  • 291111Z AUTO 00000KT 2 1/2SM BR OVC003 M15/M17 A3019 RMK VIS VRB 1 1/2-3 SLP255
  • 291109Z AUTO VRB02KT 3SM BR OVC003 M15/M17 A3019 RMK SLP255
  • 291100Z AUTO 00000KT 3SM -SN OVC003 M15/M17 A3019 RMK SLP254

TAF AMD TAF CZSJ
Valid from the 29 at 13:00 until the 29 at 23:00 UTC


291322Z 2913/2923 VRB03KT 2SM BR OVC003
TEMPO 2913/2916 6SM -SN OVC012
PROB30 2913/2916 1/2SM FZFG VV002
FM291600 21005KT P6SM -SN OVC015 RMK FCST BASED ON AUTO OBS. NXT FCST BY 291800Z



MET'MAP, your aeronautical weather chart ! - Copyright ORBIFLY December 2007 - Disclaimer

ORBIFLY MET'MAP TEAM :

Programming & Development : Alexandra Zaïnal
Concept & original design : Baudouin d'Aumeries
Assistance for programming : Marc-Olivier Méhu
Technical & hardware support : Manuel Goepfert

Contact : metmap@orbifly.com




SOURCES & CREDITS :

   NOAA       Earth
Advisory